Glücksspieler im Turnier von 01.01.2019 bis 01.02.2019

Glücksspielers Ergebnis

Rang 75.
Turnierpunkte 1038
Gespielt : Gewonnen 100 : 65
Schneider 10
Bilanz 618:483

Glücksspielers Bummerln

Zeit Gegner Ergebnis Ende
17:05:17 am 03.01.2019 Heinrich Schwi 0:8 normal
16:56:30 am 03.01.2019 Franz 6:7 normal
16:52:08 am 03.01.2019 Ingo Anreiter 8:1 normal
16:48:55 am 03.01.2019 *DELETED 8:3 autocontnormal
16:43:26 am 03.01.2019 XT1562 8:4 normal
16:32:57 am 03.01.2019 SR52 7:2 normal
11:29:46 am 03.01.2019 margitW 7:0 normal
11:23:21 am 03.01.2019 ts115 7:2 normal
11:18:31 am 03.01.2019 Gizus 7:5 normal
11:12:36 am 03.01.2019 _Rio _ 8:6 normal
11:09:13 am 03.01.2019 Tome 7:0 normal
11:04:28 am 03.01.2019 aubameyang 5:8 normal
10:02:06 am 03.01.2019 1. FC Köln 0:7 normal
09:57:22 am 03.01.2019 *Borderly 7:0 autocontnormal
09:52:44 am 03.01.2019 Gerhard 8:1 normal
09:39:23 am 03.01.2019 mike 99 4:8 normal
09:07:20 am 03.01.2019 tarmure moise 2:8 normal
09:02:54 am 03.01.2019 Pergsi 7:2 normal
08:56:51 am 03.01.2019 Mickibeck 7:5 normal
08:53:30 am 03.01.2019 lisi 7:5 normal
08:46:17 am 03.01.2019 gismo 1:7 normal
08:19:36 am 03.01.2019 Leopold 5:8 normal
08:14:33 am 03.01.2019 Mr.Wu 8:3 normal
08:10:44 am 03.01.2019 gli 8:0 normal
08:08:40 am 03.01.2019 Mihai Morosan 0:7 normal
08:04:11 am 03.01.2019 ewalan228 8:3 normal
07:50:45 am 03.01.2019 Huberts iPhone offic... 1:8 normal
07:47:44 am 03.01.2019 Nur Patienten 8:4 normal
07:09:42 am 03.01.2019 holyblex1 5:7 normal
07:02:49 am 03.01.2019 GERU 3:9 normal
06:55:54 am 03.01.2019 Lexus 6:8 normal
06:36:39 am 03.01.2019 Joha 81 7:6 normal
06:32:14 am 03.01.2019 mani 3:8 normal
06:26:58 am 03.01.2019 IrEd 7:0 normal
20:32:32 am 02.01.2019 Franz Rambo Thomas K... 6:7 normal
20:26:49 am 02.01.2019 DELETED 9:4 normal
20:19:37 am 02.01.2019 Rosa Brunner 8:5 normal
20:13:30 am 02.01.2019 Benjamin P. 7:2 normal
20:08:52 am 02.01.2019 Maba 6:8 normal
20:01:15 am 02.01.2019 DELETED 1:7 normal
19:32:33 am 02.01.2019 aleks 7:6 normal
10:42:49 am 02.01.2019 Evi 8:5 normal
10:32:44 am 02.01.2019 zorro_super 7:6 normal
10:27:43 am 02.01.2019 stifter 7:1 normal
10:20:25 am 02.01.2019 mario 8:4 normal
10:17:09 am 02.01.2019 Manfred 8:0 normal
10:01:56 am 02.01.2019 Elisabeth Girlinger 7:5 normal
09:56:48 am 02.01.2019 wuz6 8:6 normal
09:53:22 am 02.01.2019 Peter2000PeterPingist 2:7 normal
09:36:02 am 02.01.2019 EVA 8:4 normal
09:32:34 am 02.01.2019 Günter 3:8 normal
08:58:21 am 02.01.2019 jutta58 0:8 normal
08:55:17 am 02.01.2019 blitzi 7:5 normal
08:50:04 am 02.01.2019 Martin 8:5 normal
08:48:40 am 02.01.2019 Hr Heinz 3:8 normal
08:46:42 am 02.01.2019 gernot 666 7:0 normal
08:41:07 am 02.01.2019 jack 6:8 normal
08:34:50 am 02.01.2019 helga 4:7 normal
08:31:00 am 02.01.2019 12345 7:6 normal
08:27:32 am 02.01.2019 Hr. Werner 7:3 normal
08:24:06 am 02.01.2019 Markus Tauber 1:8 normal
08:19:25 am 02.01.2019 SM-A520F 8:4 normal
08:13:28 am 02.01.2019 Hob Di 8:5 normal
08:06:07 am 02.01.2019 Gerd Buchacher 7:2 normal
08:00:03 am 02.01.2019 Thomas Klammer 7:3 normal
07:58:42 am 02.01.2019 Kzunki 8:0 normal
07:52:28 am 02.01.2019 fredl2244 8:6 normal
06:47:24 am 02.01.2019 prinz 6 7:6 normal
06:42:54 am 02.01.2019 Mini-Mellu 8:6 normal
06:38:41 am 02.01.2019 vali 3:7 normal
19:32:42 am 01.01.2019 *Horsti 8:6 autocontnormal
19:24:36 am 01.01.2019 Roman Unger 7:5 normal
19:21:18 am 01.01.2019 Silvia 9:3 normal
17:50:38 am 01.01.2019 walt 6:7 normal
17:45:22 am 01.01.2019 Hofi 7:2 normal
17:23:04 am 01.01.2019 adult 8:5 normal
14:44:00 am 01.01.2019 Speedy 5:7 normal
14:40:13 am 01.01.2019 Hase 7:2 normal
14:35:26 am 01.01.2019 Hotingirl 7:4 normal
14:29:34 am 01.01.2019 fatschko 5:9 normal
14:25:23 am 01.01.2019 Willi G 7:3 normal
14:20:14 am 01.01.2019 Kettl Tom 4:8 normal
14:11:55 am 01.01.2019 *Mlintsche 6:8 autocontnormal
14:06:22 am 01.01.2019 Milan Žvorc 1:7 normal
13:58:18 am 01.01.2019 Wiesl Flink 7:3 normal
13:51:19 am 01.01.2019 iPad 8:4 normal
13:46:17 am 01.01.2019 DELETED 9:4 normal
13:39:54 am 01.01.2019 ptk89 6:8 normal
13:36:02 am 01.01.2019 Strozi 9:5 normal
13:29:58 am 01.01.2019 *DER WAHRE CHAMPION 8:6 autocontnormal
13:25:39 am 01.01.2019 Godis 7:4 normal
13:23:37 am 01.01.2019 Bexter 3:7 normal
13:22:04 am 01.01.2019 Marco 8:3 normal
13:08:29 am 01.01.2019 leni 8:4 normal
13:04:32 am 01.01.2019 Bernhard Buchmayr 8:1 normal
12:58:18 am 01.01.2019 vanda 8:2 normal
12:55:41 am 01.01.2019 Walter742 8:0 normal
12:44:10 am 01.01.2019 Armin Schanes 6:7 normal
12:37:36 am 01.01.2019 Heinz 6:7 normal
12:11:48 am 01.01.2019 Schnopser 8:0 normal